sensor_id;sensor_type;location;lat;lon;timestamp;P1;durP1;ratioP1;P2;durP2;ratioP2
16015;SDS011;8112;53.592;10.184;2023-02-12T00:02:21;20.93;;;10.30;;
16015;SDS011;8112;53.592;10.184;2023-02-12T00:07:22;20.03;;;10.80;;
16015;SDS011;8112;53.592;10.184;2023-02-12T00:12:24;21.83;;;10.93;;
16015;SDS011;8112;53.592;10.184;2023-02-12T00:17:27;19.73;;;9.53;;
16015;SDS011;8112;53.592;10.184;2023-02-12T00:22:29;18.60;;;10.07;;
16015;SDS011;8112;53.592;10.184;2023-02-12T00:27:31;14.37;;;8.23;;
16015;SDS011;8112;53.592;10.184;2023-02-12T00:32:35;18.77;;;9.00;;
16015;SDS011;8112;53.592;10.184;2023-02-12T00:37:37;12.90;;;8.00;;
16015;SDS011;8112;53.592;10.184;2023-02-12T00:42:38;16.97;;;8.53;;
16015;SDS011;8112;53.592;10.184;2023-02-12T00:47:41;19.27;;;8.80;;
16015;SDS011;8112;53.592;10.184;2023-02-12T00:52:43;13.30;;;7.03;;
16015;SDS011;8112;53.592;10.184;2023-02-12T00:57:45;14.77;;;7.90;;
16015;SDS011;8112;53.592;10.184;2023-02-12T01:02:48;16.53;;;8.57;;
16015;SDS011;8112;53.592;10.184;2023-02-12T01:07:49;13.63;;;6.87;;
16015;SDS011;8112;53.592;10.184;2023-02-12T01:12:52;11.47;;;7.03;;
16015;SDS011;8112;53.592;10.184;2023-02-12T01:17:55;16.40;;;7.80;;
16015;SDS011;8112;53.592;10.184;2023-02-12T01:22:57;14.10;;;6.50;;
16015;SDS011;8112;53.592;10.184;2023-02-12T01:28:00;14.20;;;7.33;;
16015;SDS011;8112;53.592;10.184;2023-02-12T01:33:03;12.17;;;6.83;;
16015;SDS011;8112;53.592;10.184;2023-02-12T01:38:05;11.90;;;6.93;;
16015;SDS011;8112;53.592;10.184;2023-02-12T01:43:08;14.23;;;6.80;;
16015;SDS011;8112;53.592;10.184;2023-02-12T01:48:14;11.73;;;7.00;;
16015;SDS011;8112;53.592;10.184;2023-02-12T01:53:17;14.37;;;7.30;;
16015;SDS011;8112;53.592;10.184;2023-02-12T01:58:22;15.27;;;7.73;;
16015;SDS011;8112;53.592;10.184;2023-02-12T02:03:26;14.07;;;7.70;;
16015;SDS011;8112;53.592;10.184;2023-02-12T02:08:28;14.07;;;8.07;;
16015;SDS011;8112;53.592;10.184;2023-02-12T02:13:30;14.03;;;7.77;;
16015;SDS011;8112;53.592;10.184;2023-02-12T02:18:54;12.67;;;7.87;;
16015;SDS011;8112;53.592;10.184;2023-02-12T02:24:06;13.17;;;7.60;;
16015;SDS011;8112;53.592;10.184;2023-02-12T02:29:35;15.30;;;8.33;;
16015;SDS011;8112;53.592;10.184;2023-02-12T02:34:51;16.37;;;7.83;;
16015;SDS011;8112;53.592;10.184;2023-02-12T02:40:06;15.67;;;8.00;;
16015;SDS011;8112;53.592;10.184;2023-02-12T02:45:12;18.47;;;9.70;;
16015;SDS011;8112;53.592;10.184;2023-02-12T02:50:18;19.27;;;8.97;;
16015;SDS011;8112;53.592;10.184;2023-02-12T02:55:24;17.17;;;9.47;;
16015;SDS011;8112;53.592;10.184;2023-02-12T03:00:31;17.83;;;9.87;;
16015;SDS011;8112;53.592;10.184;2023-02-12T03:05:41;15.70;;;8.13;;
16015;SDS011;8112;53.592;10.184;2023-02-12T03:10:47;16.23;;;8.57;;
16015;SDS011;8112;53.592;10.184;2023-02-12T03:15:53;15.67;;;8.63;;
16015;SDS011;8112;53.592;10.184;2023-02-12T03:21:02;15.47;;;8.40;;
16015;SDS011;8112;53.592;10.184;2023-02-12T03:26:10;12.03;;;7.47;;
16015;SDS011;8112;53.592;10.184;2023-02-12T03:31:19;12.50;;;7.33;;
16015;SDS011;8112;53.592;10.184;2023-02-12T03:36:34;12.33;;;6.77;;
16015;SDS011;8112;53.592;10.184;2023-02-12T03:41:46;13.57;;;7.90;;
16015;SDS011;8112;53.592;10.184;2023-02-12T03:46:56;12.73;;;7.87;;
16015;SDS011;8112;53.592;10.184;2023-02-12T03:52:04;13.83;;;7.10;;
16015;SDS011;8112;53.592;10.184;2023-02-12T03:57:06;16.60;;;7.83;;
16015;SDS011;8112;53.592;10.184;2023-02-12T04:02:10;12.00;;;7.07;;
16015;SDS011;8112;53.592;10.184;2023-02-12T04:07:14;11.60;;;6.97;;
16015;SDS011;8112;53.592;10.184;2023-02-12T04:12:22;12.00;;;6.17;;
16015;SDS011;8112;53.592;10.184;2023-02-12T04:17:35;9.93;;;6.60;;
16015;SDS011;8112;53.592;10.184;2023-02-12T04:22:53;14.03;;;6.60;;
16015;SDS011;8112;53.592;10.184;2023-02-12T04:28:04;12.57;;;6.87;;
16015;SDS011;8112;53.592;10.184;2023-02-12T04:33:13;13.37;;;6.97;;
16015;SDS011;8112;53.592;10.184;2023-02-12T04:38:21;17.67;;;7.53;;
16015;SDS011;8112;53.592;10.184;2023-02-12T04:43:27;18.67;;;7.83;;
16015;SDS011;8112;53.592;10.184;2023-02-12T04:48:29;16.57;;;7.70;;
16015;SDS011;8112;53.592;10.184;2023-02-12T04:53:34;18.23;;;8.47;;
16015;SDS011;8112;53.592;10.184;2023-02-12T04:58:37;23.17;;;8.40;;
16015;SDS011;8112;53.592;10.184;2023-02-12T05:03:39;16.60;;;8.47;;
16015;SDS011;8112;53.592;10.184;2023-02-12T05:08:42;16.60;;;8.50;;
16015;SDS011;8112;53.592;10.184;2023-02-12T05:13:46;18.90;;;8.13;;
16015;SDS011;8112;53.592;10.184;2023-02-12T05:18:48;22.87;;;8.37;;
16015;SDS011;8112;53.592;10.184;2023-02-12T05:23:52;17.23;;;6.87;;
16015;SDS011;8112;53.592;10.184;2023-02-12T05:28:53;24.30;;;8.80;;
16015;SDS011;8112;53.592;10.184;2023-02-12T05:33:55;31.00;;;8.83;;
16015;SDS011;8112;53.592;10.184;2023-02-12T05:38:58;32.53;;;9.17;;
16015;SDS011;8112;53.592;10.184;2023-02-12T05:44:00;23.73;;;8.80;;
16015;SDS011;8112;53.592;10.184;2023-02-12T05:49:05;37.70;;;9.80;;
16015;SDS011;8112;53.592;10.184;2023-02-12T05:54:09;28.67;;;9.43;;
16015;SDS011;8112;53.592;10.184;2023-02-12T05:59:12;26.47;;;9.53;;
16015;SDS011;8112;53.592;10.184;2023-02-12T06:04:16;24.27;;;8.93;;
16015;SDS011;8112;53.592;10.184;2023-02-12T06:09:21;27.53;;;9.23;;
16015;SDS011;8112;53.592;10.184;2023-02-12T06:14:23;30.37;;;9.77;;
16015;SDS011;8112;53.592;10.184;2023-02-12T06:19:25;39.53;;;11.87;;
16015;SDS011;8112;53.592;10.184;2023-02-12T06:24:28;26.43;;;9.37;;
16015;SDS011;8112;53.592;10.184;2023-02-12T06:29:30;37.67;;;10.77;;
16015;SDS011;8112;53.592;10.184;2023-02-12T06:34:31;19.53;;;9.87;;
16015;SDS011;8112;53.592;10.184;2023-02-12T06:39:34;38.17;;;12.30;;
16015;SDS011;8112;53.592;10.184;2023-02-12T06:44:36;38.50;;;12.43;;
16015;SDS011;8112;53.592;10.184;2023-02-12T06:49:38;35.90;;;11.93;;
16015;SDS011;8112;53.592;10.184;2023-02-12T06:54:41;34.47;;;12.50;;
16015;SDS011;8112;53.592;10.184;2023-02-12T06:59:42;40.57;;;14.20;;
16015;SDS011;8112;53.592;10.184;2023-02-12T07:04:44;39.13;;;14.10;;
16015;SDS011;8112;53.592;10.184;2023-02-12T07:09:47;41.90;;;14.77;;
16015;SDS011;8112;53.592;10.184;2023-02-12T07:14:49;36.47;;;13.33;;
16015;SDS011;8112;53.592;10.184;2023-02-12T07:19:50;35.67;;;13.67;;
16015;SDS011;8112;53.592;10.184;2023-02-12T07:24:53;35.47;;;14.67;;
16015;SDS011;8112;53.592;10.184;2023-02-12T07:29:55;43.97;;;15.20;;
16015;SDS011;8112;53.592;10.184;2023-02-12T07:40:10;38.27;;;13.73;;
16015;SDS011;8112;53.592;10.184;2023-02-12T07:45:12;36.83;;;13.10;;
16015;SDS011;8112;53.592;10.184;2023-02-12T07:50:14;34.83;;;13.37;;
16015;SDS011;8112;53.592;10.184;2023-02-12T07:55:18;45.10;;;16.10;;
16015;SDS011;8112;53.592;10.184;2023-02-12T08:00:20;31.13;;;12.80;;
16015;SDS011;8112;53.592;10.184;2023-02-12T08:05:22;38.73;;;14.97;;
16015;SDS011;8112;53.592;10.184;2023-02-12T08:10:25;37.83;;;13.93;;
16015;SDS011;8112;53.592;10.184;2023-02-12T08:15:27;45.53;;;15.30;;
16015;SDS011;8112;53.592;10.184;2023-02-12T08:20:28;44.50;;;15.47;;
16015;SDS011;8112;53.592;10.184;2023-02-12T08:25:31;39.33;;;14.53;;
16015;SDS011;8112;53.592;10.184;2023-02-12T08:30:33;42.60;;;15.27;;
16015;SDS011;8112;53.592;10.184;2023-02-12T08:35:35;43.97;;;15.27;;
16015;SDS011;8112;53.592;10.184;2023-02-12T08:40:38;49.13;;;15.20;;
16015;SDS011;8112;53.592;10.184;2023-02-12T08:45:39;35.17;;;14.40;;
16015;SDS011;8112;53.592;10.184;2023-02-12T08:50:42;36.70;;;14.07;;
16015;SDS011;8112;53.592;10.184;2023-02-12T08:55:48;40.77;;;16.33;;
16015;SDS011;8112;53.592;10.184;2023-02-12T09:00:50;42.83;;;16.80;;
16015;SDS011;8112;53.592;10.184;2023-02-12T09:05:51;33.90;;;13.03;;
16015;SDS011;8112;53.592;10.184;2023-02-12T09:10:54;40.07;;;15.63;;
16015;SDS011;8112;53.592;10.184;2023-02-12T09:15:59;38.43;;;16.53;;
16015;SDS011;8112;53.592;10.184;2023-02-12T09:21:01;39.80;;;15.67;;
16015;SDS011;8112;53.592;10.184;2023-02-12T09:26:06;33.83;;;13.77;;
16015;SDS011;8112;53.592;10.184;2023-02-12T09:31:10;35.43;;;15.07;;
16015;SDS011;8112;53.592;10.184;2023-02-12T09:36:13;30.30;;;13.60;;
16015;SDS011;8112;53.592;10.184;2023-02-12T09:41:23;31.70;;;14.70;;
16015;SDS011;8112;53.592;10.184;2023-02-12T09:46:38;38.40;;;13.93;;
16015;SDS011;8112;53.592;10.184;2023-02-12T09:51:47;32.73;;;14.70;;
16015;SDS011;8112;53.592;10.184;2023-02-12T09:56:55;32.80;;;15.23;;
16015;SDS011;8112;53.592;10.184;2023-02-12T10:02:00;30.67;;;14.10;;
16015;SDS011;8112;53.592;10.184;2023-02-12T10:07:05;31.67;;;14.63;;
16015;SDS011;8112;53.592;10.184;2023-02-12T10:12:19;29.57;;;14.27;;
16015;SDS011;8112;53.592;10.184;2023-02-12T10:17:32;39.40;;;15.57;;
16015;SDS011;8112;53.592;10.184;2023-02-12T10:22:42;37.37;;;15.03;;
16015;SDS011;8112;53.592;10.184;2023-02-12T10:27:56;33.83;;;13.67;;
16015;SDS011;8112;53.592;10.184;2023-02-12T10:33:03;32.40;;;14.03;;
16015;SDS011;8112;53.592;10.184;2023-02-12T10:38:12;34.23;;;15.30;;
16015;SDS011;8112;53.592;10.184;2023-02-12T10:43:19;33.60;;;14.70;;
16015;SDS011;8112;53.592;10.184;2023-02-12T10:48:21;29.60;;;14.30;;
16015;SDS011;8112;53.592;10.184;2023-02-12T10:53:25;29.00;;;15.50;;
16015;SDS011;8112;53.592;10.184;2023-02-12T10:58:33;30.73;;;17.43;;
16015;SDS011;8112;53.592;10.184;2023-02-12T11:03:35;34.50;;;17.73;;
16015;SDS011;8112;53.592;10.184;2023-02-12T11:08:39;38.93;;;19.60;;
16015;SDS011;8112;53.592;10.184;2023-02-12T11:13:45;40.30;;;19.97;;
16015;SDS011;8112;53.592;10.184;2023-02-12T11:18:56;43.13;;;21.53;;
16015;SDS011;8112;53.592;10.184;2023-02-12T11:29:30;41.53;;;19.23;;
16015;SDS011;8112;53.592;10.184;2023-02-12T11:34:32;38.50;;;18.47;;
16015;SDS011;8112;53.592;10.184;2023-02-12T11:39:35;32.60;;;17.27;;
16015;SDS011;8112;53.592;10.184;2023-02-12T11:44:42;33.97;;;16.33;;
16015;SDS011;8112;53.592;10.184;2023-02-12T11:49:49;25.03;;;15.20;;
16015;SDS011;8112;53.592;10.184;2023-02-12T11:54:55;29.63;;;15.63;;
16015;SDS011;8112;53.592;10.184;2023-02-12T12:00:00;26.83;;;13.83;;
16015;SDS011;8112;53.592;10.184;2023-02-12T12:05:12;27.03;;;15.33;;
16015;SDS011;8112;53.592;10.184;2023-02-12T12:10:20;31.47;;;16.00;;
16015;SDS011;8112;53.592;10.184;2023-02-12T12:15:31;30.73;;;17.07;;
16015;SDS011;8112;53.592;10.184;2023-02-12T12:20:55;30.80;;;17.20;;
16015;SDS011;8112;53.592;10.184;2023-02-12T12:26:03;28.93;;;16.27;;
16015;SDS011;8112;53.592;10.184;2023-02-12T12:31:12;31.50;;;17.20;;
16015;SDS011;8112;53.592;10.184;2023-02-12T12:36:29;25.73;;;14.87;;
16015;SDS011;8112;53.592;10.184;2023-02-12T12:42:01;28.73;;;15.13;;
16015;SDS011;8112;53.592;10.184;2023-02-12T12:47:26;26.07;;;14.40;;
16015;SDS011;8112;53.592;10.184;2023-02-12T12:58:06;21.20;;;10.67;;
16015;SDS011;8112;53.592;10.184;2023-02-12T13:03:24;17.50;;;10.33;;
16015;SDS011;8112;53.592;10.184;2023-02-12T13:08:47;21.77;;;10.50;;
16015;SDS011;8112;53.592;10.184;2023-02-12T13:14:03;17.90;;;11.07;;
16015;SDS011;8112;53.592;10.184;2023-02-12T13:19:17;16.90;;;9.63;;
16015;SDS011;8112;53.592;10.184;2023-02-12T13:24:29;14.50;;;8.60;;
16015;SDS011;8112;53.592;10.184;2023-02-12T13:29:39;16.53;;;8.93;;
16015;SDS011;8112;53.592;10.184;2023-02-12T13:34:45;12.67;;;8.33;;
16015;SDS011;8112;53.592;10.184;2023-02-12T13:39:48;12.97;;;8.97;;
16015;SDS011;8112;53.592;10.184;2023-02-12T13:44:53;11.13;;;8.17;;
16015;SDS011;8112;53.592;10.184;2023-02-12T13:50:04;12.17;;;7.13;;
16015;SDS011;8112;53.592;10.184;2023-02-12T13:55:22;8.90;;;6.50;;
16015;SDS011;8112;53.592;10.184;2023-02-12T14:06:11;8.10;;;5.60;;
16015;SDS011;8112;53.592;10.184;2023-02-12T14:11:16;9.87;;;6.50;;
16015;SDS011;8112;53.592;10.184;2023-02-12T14:16:34;9.07;;;5.97;;
16015;SDS011;8112;53.592;10.184;2023-02-12T14:21:40;8.53;;;5.77;;
16015;SDS011;8112;53.592;10.184;2023-02-12T14:26:45;7.60;;;5.33;;
16015;SDS011;8112;53.592;10.184;2023-02-12T14:31:47;7.60;;;5.60;;
16015;SDS011;8112;53.592;10.184;2023-02-12T14:36:56;7.20;;;4.60;;
16015;SDS011;8112;53.592;10.184;2023-02-12T14:47:54;6.20;;;4.87;;
16015;SDS011;8112;53.592;10.184;2023-02-12T14:52:59;7.17;;;5.20;;
16015;SDS011;8112;53.592;10.184;2023-02-12T14:58:12;8.33;;;5.63;;
16015;SDS011;8112;53.592;10.184;2023-02-12T15:03:19;10.53;;;6.90;;
16015;SDS011;8112;53.592;10.184;2023-02-12T15:08:30;11.73;;;7.30;;
16015;SDS011;8112;53.592;10.184;2023-02-12T15:13:41;11.27;;;7.70;;
16015;SDS011;8112;53.592;10.184;2023-02-12T15:18:49;10.00;;;6.53;;
16015;SDS011;8112;53.592;10.184;2023-02-12T15:24:03;10.23;;;7.60;;
16015;SDS011;8112;53.592;10.184;2023-02-12T15:29:06;10.30;;;7.13;;
16015;SDS011;8112;53.592;10.184;2023-02-12T15:34:17;10.07;;;6.70;;
16015;SDS011;8112;53.592;10.184;2023-02-12T15:39:23;7.47;;;5.60;;
16015;SDS011;8112;53.592;10.184;2023-02-12T15:44:27;13.60;;;9.27;;
16015;SDS011;8112;53.592;10.184;2023-02-12T15:49:32;13.80;;;9.70;;
16015;SDS011;8112;53.592;10.184;2023-02-12T15:54:36;8.07;;;6.27;;
16015;SDS011;8112;53.592;10.184;2023-02-12T15:59:39;8.20;;;6.60;;
16015;SDS011;8112;53.592;10.184;2023-02-12T16:04:41;9.70;;;7.03;;
16015;SDS011;8112;53.592;10.184;2023-02-12T16:09:45;9.53;;;6.90;;
16015;SDS011;8112;53.592;10.184;2023-02-12T16:14:49;6.57;;;5.03;;
16015;SDS011;8112;53.592;10.184;2023-02-12T16:19:54;9.40;;;5.53;;
16015;SDS011;8112;53.592;10.184;2023-02-12T16:25:00;9.03;;;5.80;;
16015;SDS011;8112;53.592;10.184;2023-02-12T16:30:03;8.70;;;6.07;;
16015;SDS011;8112;53.592;10.184;2023-02-12T16:35:21;7.10;;;5.23;;
16015;SDS011;8112;53.592;10.184;2023-02-12T16:40:29;6.43;;;4.87;;
16015;SDS011;8112;53.592;10.184;2023-02-12T16:45:41;7.07;;;5.43;;
16015;SDS011;8112;53.592;10.184;2023-02-12T16:50:45;7.43;;;5.83;;
16015;SDS011;8112;53.592;10.184;2023-02-12T16:55:50;8.43;;;6.80;;
16015;SDS011;8112;53.592;10.184;2023-02-12T17:00:52;8.47;;;5.73;;
16015;SDS011;8112;53.592;10.184;2023-02-12T17:05:55;6.27;;;5.43;;
16015;SDS011;8112;53.592;10.184;2023-02-12T17:10:58;9.80;;;6.70;;
16015;SDS011;8112;53.592;10.184;2023-02-12T17:16:00;8.17;;;6.47;;
16015;SDS011;8112;53.592;10.184;2023-02-12T17:21:05;7.57;;;6.23;;
16015;SDS011;8112;53.592;10.184;2023-02-12T17:26:10;9.73;;;7.20;;
16015;SDS011;8112;53.592;10.184;2023-02-12T17:31:12;14.43;;;7.83;;
16015;SDS011;8112;53.592;10.184;2023-02-12T17:36:14;8.03;;;6.07;;
16015;SDS011;8112;53.592;10.184;2023-02-12T17:41:17;11.17;;;7.60;;
16015;SDS011;8112;53.592;10.184;2023-02-12T17:46:20;12.03;;;7.67;;
16015;SDS011;8112;53.592;10.184;2023-02-12T17:51:23;10.03;;;7.23;;
16015;SDS011;8112;53.592;10.184;2023-02-12T17:56:28;11.17;;;7.50;;
16015;SDS011;8112;53.592;10.184;2023-02-12T18:01:30;19.23;;;12.30;;
16015;SDS011;8112;53.592;10.184;2023-02-12T18:06:33;11.57;;;8.73;;
16015;SDS011;8112;53.592;10.184;2023-02-12T18:11:36;20.87;;;12.70;;
16015;SDS011;8112;53.592;10.184;2023-02-12T18:16:39;20.33;;;12.60;;
16015;SDS011;8112;53.592;10.184;2023-02-12T18:21:41;13.27;;;9.53;;
16015;SDS011;8112;53.592;10.184;2023-02-12T18:26:44;14.80;;;9.07;;
16015;SDS011;8112;53.592;10.184;2023-02-12T18:31:46;12.43;;;8.63;;
16015;SDS011;8112;53.592;10.184;2023-02-12T18:36:47;12.33;;;9.00;;
16015;SDS011;8112;53.592;10.184;2023-02-12T18:41:50;22.73;;;12.67;;
16015;SDS011;8112;53.592;10.184;2023-02-12T18:46:52;14.97;;;10.60;;
16015;SDS011;8112;53.592;10.184;2023-02-12T18:51:55;16.03;;;10.17;;
16015;SDS011;8112;53.592;10.184;2023-02-12T18:56:58;33.03;;;17.57;;
16015;SDS011;8112;53.592;10.184;2023-02-12T19:02:01;24.87;;;12.67;;
16015;SDS011;8112;53.592;10.184;2023-02-12T19:07:03;19.50;;;12.90;;
16015;SDS011;8112;53.592;10.184;2023-02-12T19:12:07;14.10;;;9.40;;
16015;SDS011;8112;53.592;10.184;2023-02-12T19:17:09;16.67;;;9.50;;
16015;SDS011;8112;53.592;10.184;2023-02-12T19:22:11;11.53;;;8.50;;
16015;SDS011;8112;53.592;10.184;2023-02-12T19:27:14;12.67;;;8.60;;
16015;SDS011;8112;53.592;10.184;2023-02-12T19:32:17;12.67;;;9.50;;
16015;SDS011;8112;53.592;10.184;2023-02-12T19:37:18;14.47;;;9.87;;
16015;SDS011;8112;53.592;10.184;2023-02-12T19:42:21;13.77;;;10.90;;
16015;SDS011;8112;53.592;10.184;2023-02-12T19:47:23;15.93;;;10.83;;
16015;SDS011;8112;53.592;10.184;2023-02-12T19:52:25;15.97;;;11.57;;
16015;SDS011;8112;53.592;10.184;2023-02-12T19:57:28;16.33;;;11.67;;
16015;SDS011;8112;53.592;10.184;2023-02-12T20:02:30;16.97;;;12.57;;
16015;SDS011;8112;53.592;10.184;2023-02-12T20:07:32;15.70;;;11.77;;
16015;SDS011;8112;53.592;10.184;2023-02-12T20:12:35;16.57;;;12.20;;
16015;SDS011;8112;53.592;10.184;2023-02-12T20:17:39;16.93;;;12.67;;
16015;SDS011;8112;53.592;10.184;2023-02-12T20:22:40;18.27;;;12.93;;
16015;SDS011;8112;53.592;10.184;2023-02-12T20:27:43;18.73;;;11.93;;
16015;SDS011;8112;53.592;10.184;2023-02-12T20:32:45;18.23;;;12.80;;
16015;SDS011;8112;53.592;10.184;2023-02-12T20:37:47;19.73;;;14.07;;
16015;SDS011;8112;53.592;10.184;2023-02-12T20:42:50;19.50;;;13.10;;
16015;SDS011;8112;53.592;10.184;2023-02-12T20:47:51;18.43;;;12.87;;
16015;SDS011;8112;53.592;10.184;2023-02-12T20:52:53;21.10;;;13.90;;
16015;SDS011;8112;53.592;10.184;2023-02-12T20:57:56;21.97;;;15.93;;
16015;SDS011;8112;53.592;10.184;2023-02-12T21:02:58;18.50;;;13.30;;
16015;SDS011;8112;53.592;10.184;2023-02-12T21:08:03;17.30;;;12.33;;
16015;SDS011;8112;53.592;10.184;2023-02-12T21:13:06;19.43;;;13.33;;
16015;SDS011;8112;53.592;10.184;2023-02-12T21:18:08;19.63;;;13.23;;
16015;SDS011;8112;53.592;10.184;2023-02-12T21:23:09;19.33;;;13.17;;
16015;SDS011;8112;53.592;10.184;2023-02-12T21:28:12;19.10;;;12.80;;
16015;SDS011;8112;53.592;10.184;2023-02-12T21:33:14;19.50;;;13.70;;
16015;SDS011;8112;53.592;10.184;2023-02-12T21:38:16;19.90;;;14.43;;
16015;SDS011;8112;53.592;10.184;2023-02-12T21:43:19;23.77;;;15.83;;
16015;SDS011;8112;53.592;10.184;2023-02-12T21:48:20;21.90;;;14.87;;
16015;SDS011;8112;53.592;10.184;2023-02-12T21:53:22;20.33;;;14.77;;
16015;SDS011;8112;53.592;10.184;2023-02-12T21:58:25;20.90;;;14.70;;
16015;SDS011;8112;53.592;10.184;2023-02-12T22:03:27;23.40;;;15.47;;
16015;SDS011;8112;53.592;10.184;2023-02-12T22:08:29;20.20;;;14.70;;
16015;SDS011;8112;53.592;10.184;2023-02-12T22:13:32;20.93;;;14.47;;
16015;SDS011;8112;53.592;10.184;2023-02-12T22:18:34;20.33;;;14.47;;
16015;SDS011;8112;53.592;10.184;2023-02-12T22:23:36;21.53;;;15.03;;
16015;SDS011;8112;53.592;10.184;2023-02-12T22:28:40;18.13;;;13.13;;
16015;SDS011;8112;53.592;10.184;2023-02-12T22:33:43;22.20;;;14.70;;
16015;SDS011;8112;53.592;10.184;2023-02-12T22:38:45;17.23;;;13.30;;
16015;SDS011;8112;53.592;10.184;2023-02-12T22:43:48;17.50;;;13.17;;
16015;SDS011;8112;53.592;10.184;2023-02-12T22:48:50;19.70;;;14.07;;
16015;SDS011;8112;53.592;10.184;2023-02-12T22:53:52;20.33;;;13.57;;
16015;SDS011;8112;53.592;10.184;2023-02-12T22:58:56;20.60;;;13.90;;
16015;SDS011;8112;53.592;10.184;2023-02-12T23:03:58;21.67;;;15.10;;
16015;SDS011;8112;53.592;10.184;2023-02-12T23:09:00;20.20;;;13.47;;
16015;SDS011;8112;53.592;10.184;2023-02-12T23:14:05;18.40;;;12.33;;
16015;SDS011;8112;53.592;10.184;2023-02-12T23:19:08;23.70;;;13.00;;
16015;SDS011;8112;53.592;10.184;2023-02-12T23:24:11;18.13;;;11.50;;
16015;SDS011;8112;53.592;10.184;2023-02-12T23:29:15;18.03;;;13.20;;
16015;SDS011;8112;53.592;10.184;2023-02-12T23:34:17;18.37;;;13.07;;
16015;SDS011;8112;53.592;10.184;2023-02-12T23:39:18;16.63;;;11.27;;
16015;SDS011;8112;53.592;10.184;2023-02-12T23:44:22;16.73;;;11.63;;
16015;SDS011;8112;53.592;10.184;2023-02-12T23:49:24;17.07;;;12.50;;
16015;SDS011;8112;53.592;10.184;2023-02-12T23:54:26;14.47;;;10.10;;
16015;SDS011;8112;53.592;10.184;2023-02-12T23:59:29;17.93;;;12.50;;
